Time;durP1;ratioP1;P1;durP2;ratioP2;P2;SDS_P1;SDS_P2;PMS_P1;PMS_P2;Temp;Humidity;BMP_temperature;BMP_pressure;BME280_temperature;BME280_humidity;BME280_pressure;Samples;Min_cycle;Max_cycle;Signal;HPM_P1;HPM_P2
2021/10/06 05:45:30;;;;;;;2.67;1.00;;;;;;;;;;6227166;22;20461;-84
2021/10/06 05:47:56;;;;;;;2.08;0.90;;;;;;;;;;6248089;23;20012;-83
2021/10/06 05:50:21;;;;;;;4.00;1.42;;;;;;;;;;6248092;22;20343;-85
2021/10/06 05:52:46;;;;;;;2.53;1.42;;;;;;;;;;6248064;23;20036;-81
2021/10/06 05:55:12;;;;;;;2.45;1.05;;;;;;;;;;6247637;23;20019;-80
2021/10/06 05:57:37;;;;;;;1.67;1.13;;;;;;;;;;6248107;23;20419;-84
2021/10/06 06:00:06;;;;;;;3.78;1.42;;;;;;;;;;6247847;22;20008;-82
2021/10/06 06:02:31;;;;;;;2.95;1.90;;;;;;;;;;6248231;23;20502;-83
2021/10/06 09:21:53;;;;;;;0.73;0.57;;;;;;;;;;6239069;22;20031;-81
2021/10/06 09:24:19;;;;;;;1.27;0.40;;;;;;;;;;6248038;23;20079;-81
2021/10/06 09:26:44;;;;;;;0.68;0.40;;;;;;;;;;6248177;23;20078;-84
2021/10/06 09:29:23;;;;;;;1.40;0.60;;;;;;;;;;6248106;22;20027;-85
2021/10/06 09:31:48;;;;;;;1.17;0.43;;;;;;;;;;6247940;23;20370;-84
2021/10/06 09:34:14;;;;;;;0.38;0.38;;;;;;;;;;6248654;23;20008;-84
2021/10/06 09:36:39;;;;;;;0.40;0.40;;;;;;;;;;6248283;23;20000;-85
2021/10/06 09:39:09;;;;;;;1.20;0.47;;;;;;;;;;6247917;22;20008;-85
2021/10/06 09:41:45;;;;;;;0.40;0.40;;;;;;;;;;6248048;23;19996;-85
2021/10/06 09:44:12;;;;;;;0.40;0.40;;;;;;;;;;6247817;23;20031;-85
2021/10/06 09:46:48;;;;;;;1.15;0.60;;;;;;;;;;6221001;23;20091;-85
2021/10/06 09:49:19;;;;;;;0.60;0.50;;;;;;;;;;6220828;23;20075;-84
2021/10/06 09:51:45;;;;;;;1.27;0.45;;;;;;;;;;6248087;23;20000;-84
2021/10/06 09:54:11;;;;;;;0.82;0.60;;;;;;;;;;6247957;23;20000;-84
2021/10/06 09:56:45;;;;;;;0.55;0.50;;;;;;;;;;6247862;23;20004;-84
2021/10/06 09:59:15;;;;;;;0.80;0.60;;;;;;;;;;6247512;22;20004;-81
2021/10/06 10:01:42;;;;;;;0.40;0.40;;;;;;;;;;6247774;23;20557;-80
2021/10/06 10:04:08;;;;;;;0.95;0.55;;;;;;;;;;6247892;23;20323;-81
2021/10/06 10:06:34;;;;;;;0.50;0.50;;;;;;;;;;6247648;23;20000;-82
2021/10/06 10:09:02;;;;;;;2.38;1.90;;;;;;;;;;6247559;22;20010;-80
2021/10/06 10:11:30;;;;;;;1.02;0.60;;;;;;;;;;6248171;23;20486;-81
2021/10/06 10:13:55;;;;;;;0.40;0.40;;;;;;;;;;6220677;23;20008;-81
2021/10/06 10:16:21;;;;;;;0.65;0.50;;;;;;;;;;6247738;23;20083;-81
2021/10/06 10:18:47;;;;;;;1.05;0.50;;;;;;;;;;6247537;22;20000;-80
2021/10/06 10:21:15;;;;;;;0.50;0.50;;;;;;;;;;6220821;23;20019;-84
2021/10/06 10:23:41;;;;;;;0.40;0.40;;;;;;;;;;6247507;23;20043;-81
2021/10/06 10:26:21;;;;;;;0.50;0.50;;;;;;;;;;6247604;23;20332;-84
2021/10/06 10:28:46;;;;;;;;;;;;;;;;;;6248409;22;20464;-80
2021/10/06 10:31:22;;;;;;;0.30;0.30;;;;;;;;;;6248029;23;19911;-81
2021/10/06 10:34:27;;;;;;;0.30;0.30;;;;;;;;;;6245911;23;20012;-80
2021/10/06 10:40:45;;;;;;;2.97;0.50;;;;;;;;;;6247236;23;20018;-84
2021/10/06 10:43:19;;;;;;;1.17;0.40;;;;;;;;;;6247220;23;20032;-83
2021/10/06 10:49:06;;;;;;;0.50;0.50;;;;;;;;;;6247153;22;20044;-83
2021/10/06 10:51:46;;;;;;;0.47;0.47;;;;;;;;;;6247220;23;20004;-84
2021/10/06 10:54:30;;;;;;;0.50;0.50;;;;;;;;;;6247537;23;20458;-84
2021/10/06 10:56:56;;;;;;;0.60;0.43;;;;;;;;;;6247152;23;20008;-80
2021/10/06 10:59:24;;;;;;;1.25;0.50;;;;;;;;;;6247053;22;20043;-82
2021/10/06 11:01:53;;;;;;;4.47;0.80;;;;;;;;;;6247348;23;20008;-77
2021/10/06 11:04:25;;;;;;;1.27;0.47;;;;;;;;;;6247353;23;20431;-81
2021/10/06 11:06:56;;;;;;;2.05;0.30;;;;;;;;;;6247307;23;20011;-80
2021/10/06 11:09:31;;;;;;;1.00;0.50;;;;;;;;;;6247005;22;20004;-81
2021/10/06 11:12:06;;;;;;;0.43;0.43;;;;;;;;;;6247377;23;20057;-81
2021/10/06 11:14:37;;;;;;;0.80;0.40;;;;;;;;;;6247293;23;20004;-81
2021/10/06 11:17:08;;;;;;;0.47;0.40;;;;;;;;;;6247100;23;20079;-81
2021/10/06 11:19:38;;;;;;;2.33;0.98;;;;;;;;;;6246923;22;20032;-80
2021/10/06 11:22:23;;;;;;;0.70;0.40;;;;;;;;;;6246846;23;20008;-80
2021/10/06 11:24:49;;;;;;;1.60;1.33;;;;;;;;;;6246762;23;20004;-80
2021/10/06 11:27:15;;;;;;;2.00;0.30;;;;;;;;;;6247112;23;20308;-81
2021/10/06 11:29:46;;;;;;;0.77;0.60;;;;;;;;;;6246820;22;20003;-81
2021/10/06 11:32:11;;;;;;;0.40;0.40;;;;;;;;;;6246700;23;20438;-83
2021/10/06 11:34:54;;;;;;;0.30;0.30;;;;;;;;;;6246980;23;20000;-82
2021/10/06 11:37:24;;;;;;;0.30;0.30;;;;;;;;;;6219756;23;20425;-82
2021/10/06 11:39:50;;;;;;;0.40;0.40;;;;;;;;;;6246720;22;20091;-81
2021/10/06 11:42:17;;;;;;;0.80;0.38;;;;;;;;;;6246862;23;19996;-81
2021/10/06 11:44:44;;;;;;;2.40;0.40;;;;;;;;;;6246935;23;20000;-82
2021/10/06 11:47:12;;;;;;;0.40;0.40;;;;;;;;;;6220126;23;20036;-82
2021/10/06 17:01:35;;;;;;;1.25;1.15;;;;;;;;;;6183751;23;20044;-80
2021/10/06 17:04:01;;;;;;;0.60;0.60;;;;;;;;;;6186598;23;20440;-81
2021/10/06 17:06:26;;;;;;;1.67;0.90;;;;;;;;;;6186184;23;20001;-80
2021/10/06 17:08:51;;;;;;;0.50;0.50;;;;;;;;;;6207056;23;20009;-83
2021/10/06 17:11:17;;;;;;;0.70;0.60;;;;;;;;;;6215890;23;20005;-81
2021/10/06 17:13:43;;;;;;;0.52;0.52;;;;;;;;;;6216000;23;20371;-80
2021/10/06 17:16:10;;;;;;;1.30;1.00;;;;;;;;;;6216273;23;20067;-81
2021/10/06 17:18:37;;;;;;;0.90;0.70;;;;;;;;;;6215699;23;20355;-82
2021/10/06 17:21:03;;;;;;;0.60;0.60;;;;;;;;;;6189221;23;20009;-82
2021/10/06 17:23:28;;;;;;;3.28;0.60;;;;;;;;;;6215921;23;20071;-80
2021/10/06 17:25:54;;;;;;;0.50;0.43;;;;;;;;;;6216319;23;20035;-87
2021/10/06 17:28:19;;;;;;;1.92;0.50;;;;;;;;;;6216058;23;20004;-79
2021/10/06 17:30:45;;;;;;;0.40;0.40;;;;;;;;;;6217138;23;20000;-81
2021/10/06 17:33:11;;;;;;;1.67;0.70;;;;;;;;;;6217992;23;20000;-80
2021/10/06 17:35:37;;;;;;;0.60;0.57;;;;;;;;;;6217889;23;20079;-80
2021/10/06 17:38:03;;;;;;;0.52;0.52;;;;;;;;;;6217568;23;20051;-80
2021/10/06 17:40:30;;;;;;;0.65;0.55;;;;;;;;;;6217858;23;20015;-79
2021/10/06 17:42:59;;;;;;;0.50;0.50;;;;;;;;;;6223808;23;20015;-79
2021/10/06 17:45:25;;;;;;;1.83;0.57;;;;;;;;;;6224516;23;20056;-82
2021/10/06 17:47:51;;;;;;;2.05;0.57;;;;;;;;;;6218332;23;20332;-80
2021/10/06 17:50:18;;;;;;;0.70;0.52;;;;;;;;;;6218097;23;20024;-80
2021/10/06 17:52:44;;;;;;;0.47;0.40;;;;;;;;;;6217722;23;20062;-80
2021/10/06 17:55:12;;;;;;;0.95;0.77;;;;;;;;;;6217837;23;20009;-80
2021/10/06 17:57:38;;;;;;;1.30;0.85;;;;;;;;;;6217620;23;20000;-80
2021/10/06 18:00:07;;;;;;;0.40;0.40;;;;;;;;;;6217578;23;20004;-80
2021/10/06 18:02:32;;;;;;;1.88;0.63;;;;;;;;;;6217541;23;20019;-80
2021/10/06 18:04:58;;;;;;;0.63;0.50;;;;;;;;;;6217462;23;20016;-79
2021/10/06 18:07:26;;;;;;;1.00;0.60;;;;;;;;;;6217253;23;20000;-80
2021/10/06 18:09:51;;;;;;;0.50;0.50;;;;;;;;;;6217376;23;20011;-80
2021/10/06 18:12:17;;;;;;;1.38;0.60;;;;;;;;;;6217926;23;20005;-80
2021/10/06 18:14:42;;;;;;;0.60;0.60;;;;;;;;;;6217013;23;20004;-82
2021/10/06 18:17:08;;;;;;;1.40;0.60;;;;;;;;;;6217590;23;20336;-82
2021/10/06 18:19:34;;;;;;;0.80;0.40;;;;;;;;;;6217420;23;20047;-82
2021/10/06 18:21:59;;;;;;;0.80;0.60;;;;;;;;;;6217704;23;20015;-81
2021/10/06 18:24:26;;;;;;;1.63;0.90;;;;;;;;;;6190894;23;20001;-83
2021/10/06 18:26:51;;;;;;;3.78;1.52;;;;;;;;;;6217270;23;20024;-82
2021/10/06 18:29:17;;;;;;;4.47;2.38;;;;;;;;;;6217418;23;20316;-83
2021/10/06 18:31:43;;;;;;;1.88;1.23;;;;;;;;;;6217396;23;20000;-84
2021/10/06 18:34:10;;;;;;;1.17;1.08;;;;;;;;;;6217399;23;20005;-83
2021/10/06 18:36:35;;;;;;;1.77;0.80;;;;;;;;;;6217265;23;20079;-83
2021/10/06 18:39:01;;;;;;;1.00;0.90;;;;;;;;;;6216752;23;20036;-81
2021/10/06 18:41:27;;;;;;;1.15;0.70;;;;;;;;;;6217330;23;20099;-82
2021/10/06 18:43:52;;;;;;;1.80;1.17;;;;;;;;;;6217228;23;20321;-82
2021/10/06 18:46:20;;;;;;;0.70;0.70;;;;;;;;;;6217226;23;20095;-83
2021/10/06 18:48:46;;;;;;;1.92;1.10;;;;;;;;;;6190167;23;20004;-82
2021/10/06 18:51:12;;;;;;;2.17;0.80;;;;;;;;;;6217351;23;20082;-82
2021/10/06 18:53:38;;;;;;;1.02;1.00;;;;;;;;;;6217322;23;20051;-82
2021/10/06 18:56:04;;;;;;;1.02;0.93;;;;;;;;;;6217312;23;20319;-82
2021/10/06 18:58:29;;;;;;;0.63;0.63;;;;;;;;;;6216821;23;20005;-83
2021/10/06 19:00:55;;;;;;;0.52;0.50;;;;;;;;;;6217060;23;20038;-83
2021/10/06 19:03:21;;;;;;;0.47;0.43;;;;;;;;;;6217049;23;20008;-78
2021/10/06 19:05:47;;;;;;;1.33;0.68;;;;;;;;;;6217727;23;20032;-82
2021/10/06 19:08:13;;;;;;;1.48;0.80;;;;;;;;;;6190776;23;20008;-81
2021/10/06 19:10:39;;;;;;;1.65;1.20;;;;;;;;;;6216792;23;20008;-80
2021/10/06 19:13:05;;;;;;;1.33;0.90;;;;;;;;;;6216698;23;20007;-79
2021/10/06 19:15:31;;;;;;;3.20;2.45;;;;;;;;;;6217064;23;20388;-82
2021/10/06 19:17:57;;;;;;;1.00;0.90;;;;;;;;;;6216595;23;20001;-81
2021/10/06 19:20:23;;;;;;;0.70;0.65;;;;;;;;;;6216947;23;20374;-81
2021/10/06 19:22:49;;;;;;;0.40;0.40;;;;;;;;;;6217010;23;20060;-83
2021/10/06 19:25:14;;;;;;;1.23;0.80;;;;;;;;;;6216842;23;20420;-83
2021/10/06 19:27:40;;;;;;;0.88;0.80;;;;;;;;;;6216850;23;20032;-79
2021/10/06 19:30:07;;;;;;;0.90;0.90;;;;;;;;;;6216546;23;20393;-84
2021/10/06 19:32:33;;;;;;;0.70;0.70;;;;;;;;;;6216600;23;20005;-86
2021/10/06 19:34:59;;;;;;;0.82;0.80;;;;;;;;;;6216547;23;20008;-82
2021/10/06 19:37:24;;;;;;;0.75;0.60;;;;;;;;;;6216891;23;20011;-83
2021/10/06 19:39:51;;;;;;;1.33;0.70;;;;;;;;;;6216458;23;20009;-82
2021/10/06 19:42:18;;;;;;;1.65;0.65;;;;;;;;;;6216623;23;20000;-84
2021/10/06 19:44:43;;;;;;;0.65;0.60;;;;;;;;;;6190107;23;20020;-84
2021/10/06 19:47:09;;;;;;;0.65;0.55;;;;;;;;;;6216660;23;20000;-86
2021/10/06 19:49:36;;;;;;;0.85;0.70;;;;;;;;;;6216671;23;20012;-82
2021/10/06 19:52:02;;;;;;;0.95;0.68;;;;;;;;;;6216041;23;20439;-81
2021/10/06 19:54:28;;;;;;;1.50;0.70;;;;;;;;;;6216260;23;20408;-80
2021/10/06 19:56:53;;;;;;;0.65;0.63;;;;;;;;;;6216527;23;20075;-80
2021/10/06 19:59:19;;;;;;;1.35;0.50;;;;;;;;;;6189649;23;20013;-80
2021/10/06 20:01:44;;;;;;;0.55;0.50;;;;;;;;;;6216041;23;20023;-80
2021/10/06 20:04:09;;;;;;;1.45;0.70;;;;;;;;;;6216271;23;20053;-80
2021/10/06 20:06:39;;;;;;;1.30;0.80;;;;;;;;;;6216573;23;20083;-82
2021/10/06 20:09:05;;;;;;;2.25;0.85;;;;;;;;;;6216464;23;20004;-80
2021/10/06 20:12:04;;;;;;;2.65;0.80;;;;;;;;;;6216209;23;20028;-82
2021/10/06 20:14:36;;;;;;;0.50;0.50;;;;;;;;;;6214532;23;20428;-82
2021/10/06 20:17:04;;;;;;;1.33;0.50;;;;;;;;;;6215836;23;20004;-81
2021/10/06 20:19:32;;;;;;;0.88;0.68;;;;;;;;;;6215542;23;20005;-81
2021/10/06 20:22:01;;;;;;;0.60;0.60;;;;;;;;;;6216192;23;20001;-81
2021/10/06 20:24:28;;;;;;;0.63;0.60;;;;;;;;;;6216404;23;20000;-80
2021/10/06 20:26:53;;;;;;;0.55;0.55;;;;;;;;;;6215988;23;20004;-81
2021/10/06 20:29:25;;;;;;;1.10;0.85;;;;;;;;;;6215902;23;20083;-81
2021/10/06 20:31:51;;;;;;;0.90;0.80;;;;;;;;;;6216033;23;20004;-81
2021/10/06 20:35:00;;;;;;;0.70;0.70;;;;;;;;;;6216228;23;20027;-81
2021/10/06 20:40:06;;;;;;;0.63;0.60;;;;;;;;;;6220723;23;20050;-82
2021/10/06 20:42:32;;;;;;;0.60;0.60;;;;;;;;;;6216126;23;20008;-81
2021/10/06 20:44:58;;;;;;;0.80;0.50;;;;;;;;;;6215957;23;20008;-82
2021/10/06 20:47:23;;;;;;;2.00;0.80;;;;;;;;;;6215848;23;20028;-81
2021/10/06 20:49:49;;;;;;;2.10;0.70;;;;;;;;;;6215745;23;20387;-81
2021/10/06 20:52:14;;;;;;;1.50;0.88;;;;;;;;;;6215828;23;20011;-81
2021/10/06 20:54:40;;;;;;;3.80;0.80;;;;;;;;;;6216004;23;20028;-81
2021/10/06 20:57:06;;;;;;;1.10;0.80;;;;;;;;;;6215399;23;20368;-81
2021/10/06 20:59:33;;;;;;;0.90;0.90;;;;;;;;;;6188980;23;20010;-82
2021/10/06 21:02:01;;;;;;;1.02;0.63;;;;;;;;;;6216354;23;20020;-81
2021/10/06 21:04:27;;;;;;;0.90;0.70;;;;;;;;;;6215582;23;20079;-81
2021/10/06 21:06:52;;;;;;;1.65;0.75;;;;;;;;;;6217626;23;20008;-82
2021/10/06 21:09:18;;;;;;;0.93;0.60;;;;;;;;;;6217778;23;20008;-81
2021/10/06 21:11:44;;;;;;;0.80;0.70;;;;;;;;;;6217847;23;20324;-81
2021/10/06 21:14:10;;;;;;;0.50;0.50;;;;;;;;;;6217881;23;20088;-81
2021/10/06 21:16:35;;;;;;;0.70;0.50;;;;;;;;;;6217844;23;20028;-81
2021/10/06 21:19:01;;;;;;;0.82;0.50;;;;;;;;;;6190544;23;20084;-81
2021/10/06 21:21:26;;;;;;;2.45;0.73;;;;;;;;;;6217979;23;20428;-90
2021/10/06 21:23:52;;;;;;;0.60;0.60;;;;;;;;;;6217661;23;20131;-81
2021/10/06 21:26:17;;;;;;;1.15;0.50;;;;;;;;;;6217584;23;20100;-81
2021/10/06 21:28:43;;;;;;;2.25;0.47;;;;;;;;;;6217459;23;20004;-81
2021/10/06 21:31:09;;;;;;;0.50;0.50;;;;;;;;;;6217960;23;20075;-81
2021/10/06 21:33:35;;;;;;;0.60;0.60;;;;;;;;;;6217534;23;20368;-81
2021/10/06 21:36:02;;;;;;;1.10;0.60;;;;;;;;;;6191065;23;20009;-81
2021/10/06 21:38:28;;;;;;;0.70;0.70;;;;;;;;;;6217443;23;20004;-81
2021/10/06 21:40:55;;;;;;;1.13;0.70;;;;;;;;;;6217723;23;20001;-81
2021/10/06 21:43:20;;;;;;;0.60;0.60;;;;;;;;;;6217653;23;20000;-81
2021/10/06 21:45:46;;;;;;;0.73;0.73;;;;;;;;;;6217784;23;20000;-81
2021/10/06 21:48:12;;;;;;;1.38;0.70;;;;;;;;;;6217396;23;20009;-81
2021/10/06 21:50:38;;;;;;;0.47;0.47;;;;;;;;;;6217680;23;20005;-81
2021/10/06 21:53:03;;;;;;;0.50;0.50;;;;;;;;;;6217737;23;20001;-81
2021/10/06 21:55:29;;;;;;;0.63;0.63;;;;;;;;;;6217541;23;20036;-82
2021/10/06 21:57:55;;;;;;;0.60;0.60;;;;;;;;;;6217538;23;20336;-81
2021/10/06 22:00:31;;;;;;;0.70;0.70;;;;;;;;;;6190742;23;20030;-81
2021/10/06 22:02:57;;;;;;;1.15;0.40;;;;;;;;;;6190588;23;20023;-82
2021/10/06 22:05:24;;;;;;;1.58;0.75;;;;;;;;;;6217352;23;20000;-81
2021/10/06 22:07:50;;;;;;;0.70;0.65;;;;;;;;;;6217537;23;20012;-81
2021/10/06 22:10:17;;;;;;;0.55;0.50;;;;;;;;;;6217567;23;20015;-81
2021/10/06 22:12:43;;;;;;;0.70;0.40;;;;;;;;;;6217232;23;20424;-81
2021/10/06 22:15:09;;;;;;;1.23;0.60;;;;;;;;;;6217352;23;20079;-81
2021/10/06 22:17:35;;;;;;;0.60;0.60;;;;;;;;;;6216704;23;20360;-81
2021/10/06 22:20:00;;;;;;;1.52;0.80;;;;;;;;;;6217469;23;20376;-82
2021/10/06 22:22:26;;;;;;;1.95;0.40;;;;;;;;;;6217189;23;20000;-81
2021/10/06 22:24:51;;;;;;;2.47;0.65;;;;;;;;;;6217244;23;20001;-81
2021/10/06 22:27:17;;;;;;;1.35;0.70;;;;;;;;;;6217103;23;20005;-81
2021/10/06 22:29:42;;;;;;;1.05;0.60;;;;;;;;;;6217569;23;20004;-81
2021/10/06 22:32:08;;;;;;;3.65;0.70;;;;;;;;;;6216992;23;20004;-81
2021/10/06 22:34:34;;;;;;;0.88;0.70;;;;;;;;;;6217087;23;20082;-81
2021/10/06 22:37:00;;;;;;;0.60;0.60;;;;;;;;;;6217252;23;20412;-81
2021/10/06 22:39:26;;;;;;;0.82;0.63;;;;;;;;;;6216928;23;20335;-81
2021/10/06 22:41:52;;;;;;;0.63;0.63;;;;;;;;;;6190796;23;20004;-81
2021/10/06 22:44:18;;;;;;;0.50;0.50;;;;;;;;;;6217419;23;20054;-81
2021/10/06 22:46:43;;;;;;;1.05;0.57;;;;;;;;;;6216941;23;20024;-81
2021/10/06 22:49:09;;;;;;;0.55;0.47;;;;;;;;;;6216904;23;20004;-81
2021/10/06 22:51:36;;;;;;;0.82;0.70;;;;;;;;;;6217293;23;20011;-82
2021/10/06 22:54:02;;;;;;;1.13;0.50;;;;;;;;;;6216971;23;20000;-82
2021/10/06 22:56:27;;;;;;;1.95;0.70;;;;;;;;;;6216824;23;20004;-79
2021/10/06 22:58:52;;;;;;;0.88;0.57;;;;;;;;;;6189949;23;20004;-86
